sensor_id;sensor_type;location;lat;lon;timestamp;temperature;humidity
24800;DHT22;12897;50.812;4.430;2023-12-28T10:15:09;11.10;99.90
24800;DHT22;12897;50.812;4.430;2023-12-28T10:17:37;11.10;99.90
24800;DHT22;12897;50.812;4.430;2023-12-28T10:20:09;11.10;99.90
24800;DHT22;12897;50.812;4.430;2023-12-28T10:22:38;11.30;99.90
24800;DHT22;12897;50.812;4.430;2023-12-28T10:25:06;11.40;99.90
24800;DHT22;12897;50.812;4.430;2023-12-28T10:27:39;11.40;99.90
24800;DHT22;12897;50.812;4.430;2023-12-28T10:30:09;11.40;99.90
24800;DHT22;12897;50.812;4.430;2023-12-28T10:32:41;11.50;99.90
24800;DHT22;12897;50.812;4.430;2023-12-28T10:35:09;11.40;99.90
24800;DHT22;12897;50.812;4.430;2023-12-28T10:37:41;11.50;99.90
24800;DHT22;12897;50.812;4.430;2023-12-28T10:40:14;11.50;99.90
24800;DHT22;12897;50.812;4.430;2023-12-28T10:42:51;11.50;99.90
24800;DHT22;12897;50.812;4.430;2023-12-28T10:45:19;11.50;99.90
24800;DHT22;12897;50.812;4.430;2023-12-28T10:47:56;11.60;99.90
24800;DHT22;12897;50.812;4.430;2023-12-28T10:50:25;11.50;99.90
24800;DHT22;12897;50.812;4.430;2023-12-28T10:52:56;11.60;99.90
24800;DHT22;12897;50.812;4.430;2023-12-28T11:00:30;11.90;99.90
24800;DHT22;12897;50.812;4.430;2023-12-28T11:03:02;11.90;99.90
24800;DHT22;12897;50.812;4.430;2023-12-28T11:05:31;11.80;99.90
24800;DHT22;12897;50.812;4.430;2023-12-28T11:08:00;11.80;99.90
24800;DHT22;12897;50.812;4.430;2023-12-28T11:10:30;11.90;99.90
24800;DHT22;12897;50.812;4.430;2023-12-28T11:13:04;12.00;99.90
24800;DHT22;12897;50.812;4.430;2023-12-28T11:15:33;12.10;99.90
24800;DHT22;12897;50.812;4.430;2023-12-28T11:18:01;12.10;99.90
24800;DHT22;12897;50.812;4.430;2023-12-28T11:20:30;12.20;99.90
24800;DHT22;12897;50.812;4.430;2023-12-28T11:22:58;12.30;99.90
24800;DHT22;12897;50.812;4.430;2023-12-28T11:25:30;12.20;99.90
24800;DHT22;12897;50.812;4.430;2023-12-28T11:27:57;12.10;99.90
24800;DHT22;12897;50.812;4.430;2023-12-28T11:30:28;12.00;99.90
24800;DHT22;12897;50.812;4.430;2023-12-28T11:32:59;12.00;99.90
24800;DHT22;12897;50.812;4.430;2023-12-28T11:35:33;12.00;99.90
24800;DHT22;12897;50.812;4.430;2023-12-28T11:38:03;12.00;99.90
24800;DHT22;12897;50.812;4.430;2023-12-28T11:40:41;12.00;99.90
24800;DHT22;12897;50.812;4.430;2023-12-28T11:43:21;12.10;99.90
24800;DHT22;12897;50.812;4.430;2023-12-28T11:45:54;12.20;99.90
24800;DHT22;12897;50.812;4.430;2023-12-28T11:48:27;12.30;99.90
24800;DHT22;12897;50.812;4.430;2023-12-28T11:51:00;12.20;99.90
24800;DHT22;12897;50.812;4.430;2023-12-28T11:53:29;12.20;99.90
24800;DHT22;12897;50.812;4.430;2023-12-28T11:56:00;12.30;99.90
24800;DHT22;12897;50.812;4.430;2023-12-28T11:58:32;12.40;99.90
24800;DHT22;12897;50.812;4.430;2023-12-28T12:01:00;12.40;99.90
24800;DHT22;12897;50.812;4.430;2023-12-28T12:03:28;12.40;99.90
24800;DHT22;12897;50.812;4.430;2023-12-28T12:05:56;12.40;99.90
24800;DHT22;12897;50.812;4.430;2023-12-28T12:08:24;12.40;99.90
24800;DHT22;12897;50.812;4.430;2023-12-28T12:11:00;12.50;99.90
24800;DHT22;12897;50.812;4.430;2023-12-28T12:13:30;12.30;99.90
24800;DHT22;12897;50.812;4.430;2023-12-28T12:15:58;12.30;99.90
24800;DHT22;12897;50.812;4.430;2023-12-28T12:18:26;12.40;99.90
24800;DHT22;12897;50.812;4.430;2023-12-28T12:20:53;12.40;99.90
24800;DHT22;12897;50.812;4.430;2023-12-28T12:23:22;12.40;99.90
24800;DHT22;12897;50.812;4.430;2023-12-28T12:25:49;12.40;99.90
24800;DHT22;12897;50.812;4.430;2023-12-28T12:28:17;12.50;99.90
24800;DHT22;12897;50.812;4.430;2023-12-28T12:30:58;12.50;99.90
24800;DHT22;12897;50.812;4.430;2023-12-28T12:33:24;12.40;99.90
24800;DHT22;12897;50.812;4.430;2023-12-28T12:35:53;12.40;99.90
24800;DHT22;12897;50.812;4.430;2023-12-28T12:38:21;12.40;99.90
24800;DHT22;12897;50.812;4.430;2023-12-28T12:40:51;12.40;99.90
24800;DHT22;12897;50.812;4.430;2023-12-28T12:43:19;12.40;99.90
24800;DHT22;12897;50.812;4.430;2023-12-28T12:45:47;12.40;99.90
24800;DHT22;12897;50.812;4.430;2023-12-28T12:48:16;12.50;99.90
24800;DHT22;12897;50.812;4.430;2023-12-28T12:50:44;12.60;99.90
24800;DHT22;12897;50.812;4.430;2023-12-28T12:53:12;12.60;99.90
24800;DHT22;12897;50.812;4.430;2023-12-28T12:55:39;12.50;99.90
24800;DHT22;12897;50.812;4.430;2023-12-28T12:58:11;12.40;99.90
24800;DHT22;12897;50.812;4.430;2023-12-28T13:00:45;12.30;99.90
24800;DHT22;12897;50.812;4.430;2023-12-28T13:03:13;12.30;99.90
24800;DHT22;12897;50.812;4.430;2023-12-28T13:05:41;12.40;99.90
24800;DHT22;12897;50.812;4.430;2023-12-28T13:08:10;12.30;99.90
24800;DHT22;12897;50.812;4.430;2023-12-28T13:10:38;12.30;99.90
24800;DHT22;12897;50.812;4.430;2023-12-28T13:13:08;12.30;99.90
24800;DHT22;12897;50.812;4.430;2023-12-28T13:15:36;12.30;99.90
24800;DHT22;12897;50.812;4.430;2023-12-28T13:18:04;12.40;99.90
24800;DHT22;12897;50.812;4.430;2023-12-28T13:20:31;12.20;99.90
24800;DHT22;12897;50.812;4.430;2023-12-28T13:22:59;12.20;99.90
24800;DHT22;12897;50.812;4.430;2023-12-28T13:25:26;12.10;99.90
24800;DHT22;12897;50.812;4.430;2023-12-28T13:27:54;12.10;99.90
24800;DHT22;12897;50.812;4.430;2023-12-28T13:30:22;12.20;99.90
24800;DHT22;12897;50.812;4.430;2023-12-28T13:32:51;12.10;99.90
24800;DHT22;12897;50.812;4.430;2023-12-28T13:35:18;12.10;99.90
24800;DHT22;12897;50.812;4.430;2023-12-28T13:37:46;12.10;99.90
24800;DHT22;12897;50.812;4.430;2023-12-28T13:40:14;12.10;99.90
24800;DHT22;12897;50.812;4.430;2023-12-28T13:42:42;12.10;99.90
24800;DHT22;12897;50.812;4.430;2023-12-28T13:45:10;12.00;99.90
24800;DHT22;12897;50.812;4.430;2023-12-28T13:47:37;12.10;99.90
24800;DHT22;12897;50.812;4.430;2023-12-28T13:50:05;12.10;99.90
24800;DHT22;12897;50.812;4.430;2023-12-28T13:52:33;12.10;99.90
24800;DHT22;12897;50.812;4.430;2023-12-28T13:55:01;12.10;99.90
24800;DHT22;12897;50.812;4.430;2023-12-28T13:57:28;12.10;99.90
24800;DHT22;12897;50.812;4.430;2023-12-28T13:59:56;12.10;99.90
24800;DHT22;12897;50.812;4.430;2023-12-28T14:02:28;12.10;99.90
24800;DHT22;12897;50.812;4.430;2023-12-28T14:04:56;12.10;99.90
24800;DHT22;12897;50.812;4.430;2023-12-28T14:07:23;12.10;99.90
24800;DHT22;12897;50.812;4.430;2023-12-28T14:09:53;12.20;99.90
24800;DHT22;12897;50.812;4.430;2023-12-28T14:12:22;12.30;99.90
24800;DHT22;12897;50.812;4.430;2023-12-28T14:14:51;12.30;99.90
24800;DHT22;12897;50.812;4.430;2023-12-28T14:17:19;12.20;99.90
24800;DHT22;12897;50.812;4.430;2023-12-28T14:19:47;12.10;99.90
24800;DHT22;12897;50.812;4.430;2023-12-28T14:22:15;12.00;99.90
24800;DHT22;12897;50.812;4.430;2023-12-28T14:24:43;12.00;99.90
24800;DHT22;12897;50.812;4.430;2023-12-28T14:27:11;12.00;99.90
24800;DHT22;12897;50.812;4.430;2023-12-28T14:29:39;12.00;99.90
24800;DHT22;12897;50.812;4.430;2023-12-28T14:32:07;12.00;99.90
24800;DHT22;12897;50.812;4.430;2023-12-28T14:34:35;12.00;99.90
24800;DHT22;12897;50.812;4.430;2023-12-28T14:37:03;12.00;99.90
24800;DHT22;12897;50.812;4.430;2023-12-28T14:39:30;11.90;99.90
24800;DHT22;12897;50.812;4.430;2023-12-28T14:41:58;11.90;99.90
24800;DHT22;12897;50.812;4.430;2023-12-28T14:44:27;11.90;99.90
24800;DHT22;12897;50.812;4.430;2023-12-28T14:46:55;11.80;99.90
24800;DHT22;12897;50.812;4.430;2023-12-28T14:49:23;11.80;99.90
24800;DHT22;12897;50.812;4.430;2023-12-28T14:51:50;11.70;99.90
24800;DHT22;12897;50.812;4.430;2023-12-28T14:54:18;11.70;99.90
24800;DHT22;12897;50.812;4.430;2023-12-28T14:56:45;11.60;99.90
24800;DHT22;12897;50.812;4.430;2023-12-28T14:59:13;11.60;99.90
24800;DHT22;12897;50.812;4.430;2023-12-28T15:01:40;11.60;99.90
24800;DHT22;12897;50.812;4.430;2023-12-28T15:04:08;11.60;99.90
24800;DHT22;12897;50.812;4.430;2023-12-28T15:06:35;11.60;99.90
24800;DHT22;12897;50.812;4.430;2023-12-28T15:09:03;11.60;99.90
24800;DHT22;12897;50.812;4.430;2023-12-28T15:11:31;11.60;99.90
24800;DHT22;12897;50.812;4.430;2023-12-28T15:13:59;11.60;99.90
24800;DHT22;12897;50.812;4.430;2023-12-28T15:16:27;11.50;99.90
24800;DHT22;12897;50.812;4.430;2023-12-28T15:18:54;11.50;99.90
24800;DHT22;12897;50.812;4.430;2023-12-28T15:21:22;11.50;99.90
24800;DHT22;12897;50.812;4.430;2023-12-28T15:23:50;11.40;99.90
24800;DHT22;12897;50.812;4.430;2023-12-28T15:26:18;11.50;99.90
24800;DHT22;12897;50.812;4.430;2023-12-28T15:28:48;11.40;99.90
24800;DHT22;12897;50.812;4.430;2023-12-28T15:31:16;11.40;99.90
24800;DHT22;12897;50.812;4.430;2023-12-28T15:33:44;11.40;99.90
24800;DHT22;12897;50.812;4.430;2023-12-28T15:36:11;11.40;99.90
24800;DHT22;12897;50.812;4.430;2023-12-28T15:38:39;11.50;99.90
24800;DHT22;12897;50.812;4.430;2023-12-28T15:41:06;11.40;99.90
24800;DHT22;12897;50.812;4.430;2023-12-28T15:43:34;11.40;99.90
24800;DHT22;12897;50.812;4.430;2023-12-28T15:46:01;11.40;99.90
24800;DHT22;12897;50.812;4.430;2023-12-28T15:48:29;11.40;99.90
24800;DHT22;12897;50.812;4.430;2023-12-28T15:50:57;11.40;99.90
24800;DHT22;12897;50.812;4.430;2023-12-28T15:53:24;11.40;99.90
24800;DHT22;12897;50.812;4.430;2023-12-28T15:55:53;11.40;99.90
24800;DHT22;12897;50.812;4.430;2023-12-28T15:58:20;11.30;99.90
24800;DHT22;12897;50.812;4.430;2023-12-28T16:00:49;11.30;99.90
24800;DHT22;12897;50.812;4.430;2023-12-28T16:03:17;11.20;99.90
24800;DHT22;12897;50.812;4.430;2023-12-28T16:05:44;11.30;99.90
24800;DHT22;12897;50.812;4.430;2023-12-28T16:08:12;11.20;99.90
24800;DHT22;12897;50.812;4.430;2023-12-28T16:10:43;11.20;99.90
24800;DHT22;12897;50.812;4.430;2023-12-28T16:13:11;11.30;99.90
24800;DHT22;12897;50.812;4.430;2023-12-28T16:15:39;11.20;99.90
24800;DHT22;12897;50.812;4.430;2023-12-28T16:18:08;11.10;99.90
24800;DHT22;12897;50.812;4.430;2023-12-28T16:20:37;11.20;99.90
24800;DHT22;12897;50.812;4.430;2023-12-28T16:23:06;11.20;99.90
24800;DHT22;12897;50.812;4.430;2023-12-28T16:25:34;11.10;99.90
24800;DHT22;12897;50.812;4.430;2023-12-28T16:28:01;11.10;99.90
24800;DHT22;12897;50.812;4.430;2023-12-28T16:30:29;11.20;99.90
24800;DHT22;12897;50.812;4.430;2023-12-28T16:32:57;11.20;99.90
24800;DHT22;12897;50.812;4.430;2023-12-28T16:35:24;11.20;99.90
24800;DHT22;12897;50.812;4.430;2023-12-28T16:37:52;11.20;99.90
24800;DHT22;12897;50.812;4.430;2023-12-28T16:40:19;11.20;99.90
24800;DHT22;12897;50.812;4.430;2023-12-28T16:42:47;11.20;99.90
24800;DHT22;12897;50.812;4.430;2023-12-28T16:45:14;11.20;99.90
24800;DHT22;12897;50.812;4.430;2023-12-28T16:47:42;11.20;99.90
24800;DHT22;12897;50.812;4.430;2023-12-28T16:50:10;11.30;99.90
24800;DHT22;12897;50.812;4.430;2023-12-28T16:52:37;11.30;99.90
24800;DHT22;12897;50.812;4.430;2023-12-28T16:55:05;11.30;99.90
24800;DHT22;12897;50.812;4.430;2023-12-28T16:57:33;11.30;99.90
24800;DHT22;12897;50.812;4.430;2023-12-28T17:00:00;11.30;99.90
24800;DHT22;12897;50.812;4.430;2023-12-28T17:02:28;11.40;99.90
24800;DHT22;12897;50.812;4.430;2023-12-28T17:04:56;11.30;99.90
24800;DHT22;12897;50.812;4.430;2023-12-28T17:07:23;11.20;99.90
24800;DHT22;12897;50.812;4.430;2023-12-28T17:09:51;11.30;99.90
24800;DHT22;12897;50.812;4.430;2023-12-28T17:12:22;11.30;99.90
24800;DHT22;12897;50.812;4.430;2023-12-28T17:14:49;11.40;99.90
24800;DHT22;12897;50.812;4.430;2023-12-28T17:17:17;11.50;99.90
24800;DHT22;12897;50.812;4.430;2023-12-28T17:19:45;11.40;99.90
24800;DHT22;12897;50.812;4.430;2023-12-28T17:22:13;11.50;99.90
24800;DHT22;12897;50.812;4.430;2023-12-28T17:24:49;11.50;99.90
24800;DHT22;12897;50.812;4.430;2023-12-28T17:27:17;11.50;99.90
24800;DHT22;12897;50.812;4.430;2023-12-28T17:29:46;11.50;99.90
24800;DHT22;12897;50.812;4.430;2023-12-28T17:32:15;11.50;99.90
24800;DHT22;12897;50.812;4.430;2023-12-28T17:34:44;11.50;99.90
24800;DHT22;12897;50.812;4.430;2023-12-28T17:37:12;11.50;99.90
24800;DHT22;12897;50.812;4.430;2023-12-28T17:39:40;11.60;99.90
24800;DHT22;12897;50.812;4.430;2023-12-28T17:42:09;11.80;99.90
24800;DHT22;12897;50.812;4.430;2023-12-28T17:44:40;11.70;99.90
24800;DHT22;12897;50.812;4.430;2023-12-28T17:47:14;11.80;99.90
24800;DHT22;12897;50.812;4.430;2023-12-28T17:49:39;11.70;99.90
24800;DHT22;12897;50.812;4.430;2023-12-28T17:52:08;11.50;99.90
24800;DHT22;12897;50.812;4.430;2023-12-28T17:54:37;11.50;99.90
24800;DHT22;12897;50.812;4.430;2023-12-28T17:57:05;11.30;99.90
24800;DHT22;12897;50.812;4.430;2023-12-28T17:59:32;11.30;99.90
24800;DHT22;12897;50.812;4.430;2023-12-28T18:02:00;11.40;99.90
24800;DHT22;12897;50.812;4.430;2023-12-28T18:04:28;11.60;99.90
24800;DHT22;12897;50.812;4.430;2023-12-28T18:06:58;11.60;99.90
24800;DHT22;12897;50.812;4.430;2023-12-28T18:09:26;11.60;99.90
24800;DHT22;12897;50.812;4.430;2023-12-28T18:11:53;11.40;99.90
24800;DHT22;12897;50.812;4.430;2023-12-28T18:16:56;11.40;99.90
24800;DHT22;12897;50.812;4.430;2023-12-28T18:19:25;11.30;99.90
24800;DHT22;12897;50.812;4.430;2023-12-28T18:21:55;11.30;99.90
24800;DHT22;12897;50.812;4.430;2023-12-28T18:24:25;11.40;99.90
24800;DHT22;12897;50.812;4.430;2023-12-28T18:26:53;11.50;99.90
24800;DHT22;12897;50.812;4.430;2023-12-28T18:29:29;11.40;99.90
24800;DHT22;12897;50.812;4.430;2023-12-28T18:31:57;11.20;99.90
24800;DHT22;12897;50.812;4.430;2023-12-28T18:34:28;11.20;99.90
24800;DHT22;12897;50.812;4.430;2023-12-28T18:39:45;11.30;99.90
24800;DHT22;12897;50.812;4.430;2023-12-28T18:42:12;11.30;99.90
24800;DHT22;12897;50.812;4.430;2023-12-28T18:44:46;11.20;99.90
24800;DHT22;12897;50.812;4.430;2023-12-28T18:47:14;11.20;99.90
24800;DHT22;12897;50.812;4.430;2023-12-28T18:49:48;11.20;99.90
24800;DHT22;12897;50.812;4.430;2023-12-28T18:52:18;11.20;99.90
24800;DHT22;12897;50.812;4.430;2023-12-28T18:54:49;11.20;99.90
24800;DHT22;12897;50.812;4.430;2023-12-28T18:57:17;11.20;99.90
24800;DHT22;12897;50.812;4.430;2023-12-28T18:59:46;11.20;99.90
24800;DHT22;12897;50.812;4.430;2023-12-28T19:02:21;11.30;99.90
24800;DHT22;12897;50.812;4.430;2023-12-28T19:07:29;11.20;99.90
24800;DHT22;12897;50.812;4.430;2023-12-28T19:09:57;11.30;99.90
24800;DHT22;12897;50.812;4.430;2023-12-28T19:12:25;11.30;99.90
24800;DHT22;12897;50.812;4.430;2023-12-28T19:14:52;11.30;99.90
24800;DHT22;12897;50.812;4.430;2023-12-28T19:17:22;11.20;99.90
24800;DHT22;12897;50.812;4.430;2023-12-28T19:19:50;11.30;99.90
24800;DHT22;12897;50.812;4.430;2023-12-28T19:22:18;11.30;99.90
24800;DHT22;12897;50.812;4.430;2023-12-28T19:24:46;11.30;99.90
24800;DHT22;12897;50.812;4.430;2023-12-28T19:27:15;11.20;99.90
24800;DHT22;12897;50.812;4.430;2023-12-28T19:29:43;11.20;99.90
24800;DHT22;12897;50.812;4.430;2023-12-28T19:32:11;11.20;99.90
24800;DHT22;12897;50.812;4.430;2023-12-28T19:34:38;11.10;99.90
24800;DHT22;12897;50.812;4.430;2023-12-28T19:37:06;11.10;99.90
24800;DHT22;12897;50.812;4.430;2023-12-28T19:39:33;10.90;99.90
24800;DHT22;12897;50.812;4.430;2023-12-28T19:42:01;10.90;99.90
24800;DHT22;12897;50.812;4.430;2023-12-28T19:44:29;10.80;99.90
24800;DHT22;12897;50.812;4.430;2023-12-28T19:46:57;10.80;99.90
24800;DHT22;12897;50.812;4.430;2023-12-28T19:49:24;10.80;99.90
24800;DHT22;12897;50.812;4.430;2023-12-28T19:51:53;10.90;99.90
24800;DHT22;12897;50.812;4.430;2023-12-28T19:54:21;11.00;99.90
24800;DHT22;12897;50.812;4.430;2023-12-28T19:56:49;11.10;99.90
24800;DHT22;12897;50.812;4.430;2023-12-28T19:59:17;11.20;99.90
24800;DHT22;12897;50.812;4.430;2023-12-28T20:01:50;11.30;99.90
24800;DHT22;12897;50.812;4.430;2023-12-28T20:04:19;11.30;99.90
24800;DHT22;12897;50.812;4.430;2023-12-28T20:06:48;11.20;99.90
24800;DHT22;12897;50.812;4.430;2023-12-28T20:09:17;11.10;99.90
24800;DHT22;12897;50.812;4.430;2023-12-28T20:11:44;11.20;99.90
24800;DHT22;12897;50.812;4.430;2023-12-28T20:14:16;11.10;99.90
24800;DHT22;12897;50.812;4.430;2023-12-28T20:16:43;11.10;99.90
24800;DHT22;12897;50.812;4.430;2023-12-28T20:19:13;11.10;99.90
24800;DHT22;12897;50.812;4.430;2023-12-28T20:21:40;11.10;99.90
24800;DHT22;12897;50.812;4.430;2023-12-28T20:24:09;11.10;99.90
24800;DHT22;12897;50.812;4.430;2023-12-28T20:26:37;11.10;99.90
24800;DHT22;12897;50.812;4.430;2023-12-28T20:29:05;11.10;99.90
24800;DHT22;12897;50.812;4.430;2023-12-28T20:31:33;11.10;99.90
24800;DHT22;12897;50.812;4.430;2023-12-28T20:34:01;11.10;99.90
24800;DHT22;12897;50.812;4.430;2023-12-28T20:36:28;11.00;99.90
24800;DHT22;12897;50.812;4.430;2023-12-28T20:38:56;11.00;99.90
24800;DHT22;12897;50.812;4.430;2023-12-28T20:41:23;11.00;99.90
24800;DHT22;12897;50.812;4.430;2023-12-28T20:43:51;10.90;99.90
24800;DHT22;12897;50.812;4.430;2023-12-28T20:46:19;11.00;99.90
24800;DHT22;12897;50.812;4.430;2023-12-28T20:48:47;11.00;99.90
24800;DHT22;12897;50.812;4.430;2023-12-28T20:51:19;11.00;99.90
24800;DHT22;12897;50.812;4.430;2023-12-28T20:53:46;11.00;99.90
24800;DHT22;12897;50.812;4.430;2023-12-28T20:56:16;11.00;99.90
24800;DHT22;12897;50.812;4.430;2023-12-28T20:58:43;11.10;99.90
24800;DHT22;12897;50.812;4.430;2023-12-28T21:01:12;11.20;99.90
24800;DHT22;12897;50.812;4.430;2023-12-28T21:03:40;11.10;99.90
24800;DHT22;12897;50.812;4.430;2023-12-28T21:06:12;11.20;99.90
24800;DHT22;12897;50.812;4.430;2023-12-28T21:08:40;11.10;99.90
24800;DHT22;12897;50.812;4.430;2023-12-28T21:11:09;11.10;99.90
24800;DHT22;12897;50.812;4.430;2023-12-28T21:13:40;11.10;99.90
24800;DHT22;12897;50.812;4.430;2023-12-28T21:16:09;11.10;99.90
24800;DHT22;12897;50.812;4.430;2023-12-28T21:18:36;11.10;99.90
24800;DHT22;12897;50.812;4.430;2023-12-28T21:21:04;11.10;99.90
24800;DHT22;12897;50.812;4.430;2023-12-28T21:23:33;11.20;99.90
24800;DHT22;12897;50.812;4.430;2023-12-28T21:26:00;11.20;99.90
24800;DHT22;12897;50.812;4.430;2023-12-28T21:28:28;11.20;99.90
24800;DHT22;12897;50.812;4.430;2023-12-28T21:30:57;11.10;99.90
24800;DHT22;12897;50.812;4.430;2023-12-28T21:33:25;11.10;99.90
24800;DHT22;12897;50.812;4.430;2023-12-28T21:35:54;11.20;99.90
24800;DHT22;12897;50.812;4.430;2023-12-28T21:38:22;11.20;99.90
24800;DHT22;12897;50.812;4.430;2023-12-28T21:40:50;11.20;99.90
24800;DHT22;12897;50.812;4.430;2023-12-28T21:43:20;11.20;99.90
24800;DHT22;12897;50.812;4.430;2023-12-28T21:45:52;11.10;99.90
24800;DHT22;12897;50.812;4.430;2023-12-28T21:48:19;11.10;99.90
24800;DHT22;12897;50.812;4.430;2023-12-28T21:50:47;11.00;99.90
24800;DHT22;12897;50.812;4.430;2023-12-28T21:53:16;10.90;99.90
24800;DHT22;12897;50.812;4.430;2023-12-28T21:55:46;11.00;99.90
24800;DHT22;12897;50.812;4.430;2023-12-28T21:58:14;11.00;99.90
24800;DHT22;12897;50.812;4.430;2023-12-28T22:00:43;11.00;99.90
24800;DHT22;12897;50.812;4.430;2023-12-28T22:03:10;11.10;99.90
24800;DHT22;12897;50.812;4.430;2023-12-28T22:05:40;11.10;99.90
24800;DHT22;12897;50.812;4.430;2023-12-28T22:08:07;11.10;99.90
24800;DHT22;12897;50.812;4.430;2023-12-28T22:10:39;11.10;99.90
24800;DHT22;12897;50.812;4.430;2023-12-28T22:13:08;11.10;99.90
24800;DHT22;12897;50.812;4.430;2023-12-28T22:15:40;11.30;99.90
24800;DHT22;12897;50.812;4.430;2023-12-28T22:18:11;11.40;99.90
24800;DHT22;12897;50.812;4.430;2023-12-28T22:20:43;11.40;99.90
24800;DHT22;12897;50.812;4.430;2023-12-28T22:23:10;11.50;99.90
24800;DHT22;12897;50.812;4.430;2023-12-28T22:25:39;11.40;99.90
24800;DHT22;12897;50.812;4.430;2023-12-28T22:28:07;11.30;99.90
24800;DHT22;12897;50.812;4.430;2023-12-28T22:30:35;11.30;99.90
24800;DHT22;12897;50.812;4.430;2023-12-28T22:33:02;11.30;99.90
24800;DHT22;12897;50.812;4.430;2023-12-28T22:35:31;11.30;99.90
24800;DHT22;12897;50.812;4.430;2023-12-28T22:37:59;11.30;99.90
24800;DHT22;12897;50.812;4.430;2023-12-28T22:40:26;11.30;99.90
24800;DHT22;12897;50.812;4.430;2023-12-28T22:42:54;11.40;99.90
24800;DHT22;12897;50.812;4.430;2023-12-28T22:45:22;11.30;99.90
24800;DHT22;12897;50.812;4.430;2023-12-28T22:47:49;11.40;99.90
24800;DHT22;12897;50.812;4.430;2023-12-28T22:50:19;11.30;99.90
24800;DHT22;12897;50.812;4.430;2023-12-28T22:52:48;11.30;99.90
24800;DHT22;12897;50.812;4.430;2023-12-28T22:55:15;11.40;99.90
24800;DHT22;12897;50.812;4.430;2023-12-28T22:57:43;11.40;99.90
24800;DHT22;12897;50.812;4.430;2023-12-28T23:00:13;11.40;99.90
24800;DHT22;12897;50.812;4.430;2023-12-28T23:02:42;11.40;99.90
24800;DHT22;12897;50.812;4.430;2023-12-28T23:05:11;11.40;99.90
24800;DHT22;12897;50.812;4.430;2023-12-28T23:07:40;11.30;99.90
24800;DHT22;12897;50.812;4.430;2023-12-28T23:10:11;11.30;99.90
24800;DHT22;12897;50.812;4.430;2023-12-28T23:12:39;11.30;99.90
24800;DHT22;12897;50.812;4.430;2023-12-28T23:15:10;11.40;99.90
24800;DHT22;12897;50.812;4.430;2023-12-28T23:17:37;11.30;99.90
24800;DHT22;12897;50.812;4.430;2023-12-28T23:20:05;11.30;99.90
24800;DHT22;12897;50.812;4.430;2023-12-28T23:22:33;11.40;99.90
24800;DHT22;12897;50.812;4.430;2023-12-28T23:25:11;11.40;99.90
24800;DHT22;12897;50.812;4.430;2023-12-28T23:27:33;11.40;99.90
24800;DHT22;12897;50.812;4.430;2023-12-28T23:30:02;11.40;99.90
24800;DHT22;12897;50.812;4.430;2023-12-28T23:32:34;11.50;99.90
24800;DHT22;12897;50.812;4.430;2023-12-28T23:35:04;11.30;99.90
24800;DHT22;12897;50.812;4.430;2023-12-28T23:37:32;11.30;99.90
24800;DHT22;12897;50.812;4.430;2023-12-28T23:40:00;11.40;99.90
24800;DHT22;12897;50.812;4.430;2023-12-28T23:42:29;11.40;99.90
24800;DHT22;12897;50.812;4.430;2023-12-28T23:44:57;11.30;99.90
24800;DHT22;12897;50.812;4.430;2023-12-28T23:47:24;11.30;99.90
24800;DHT22;12897;50.812;4.430;2023-12-28T23:49:52;11.30;99.90
24800;DHT22;12897;50.812;4.430;2023-12-28T23:52:21;11.30;99.90
24800;DHT22;12897;50.812;4.430;2023-12-28T23:54:49;11.30;99.90
24800;DHT22;12897;50.812;4.430;2023-12-28T23:57:16;11.20;99.90
24800;DHT22;12897;50.812;4.430;2023-12-28T23:59:44;11.30;99.90
